Language selection

My Weather Profile Weather Topics  | 

Atlantic - Newfoundland: Past 24 Hour Conditions

 

Cartwright Airport

12:00 PM AST 22 January 2022
Disclaimer

This table is a summary of hourly weather conditions for the past 24 hours.
Please note that these observations might not always be representative of weather conditions over their associated marine area.

Date / Time
(AST)
Wind(knots) Conditions Visibility(km) Pressure(kPa) Air tempC) Relative humidity(%) Dew pointC) Wind Chill
22 January 2022
12:00 SW 20 gust 27 Sunny 16 102.0 -17 60 -23 -29
11:00 SW 18 gust 27 Mainly Sunny 16 102.1 -19 64 -24 -31
10:00 SSW 14 gust 24 Light Snow 16 102.1 -20 64 -25 -32
9:00 SSW 14 gust 22 Light Snow 16 102.2 -22 66 -27 -35
8:00 SSW 13 gust 20 Sunny 16 102.2 -25 73 -28 -37
7:00 S 9 Clear 16 102.2 -26 73 -29 -37
6:00 SSW 7 Clear 16 102.2 -25 72 -28 -34
5:00 SSW 9 Clear 16 102.2 -26 69 -30 -37
4:00 SSW 8 Clear 16 102.2 -26 69 -30 -37
3:00 SSW 10 gust 15 Clear 16 102.2 -26 68 -30 -38
2:00 SSW 8 Clear 16 102.2 -27 69 -31 -38
1:00 SSW 12 gust 17 Clear 16 102.2 -27 70 -31 -39
0:00 SW 10 Clear 16 102.3 -27 69 -31 -38
21 January 2022
23:00 SW 8 Clear 16 102.3 -25 67 -30 -36
22:00 WSW 10 gust 16 Clear 16 102.3 -24 65 -29 -35
21:00 S 7 Clear 16 102.3 -27 68 -31 -37
20:00 SSW 6 Clear 16 102.3 -27 72 -30 -36
19:00 WSW 13 gust 18 Clear 16 102.2 -24 70 -28 -36
18:00 SSW 6 Clear 16 102.2 -26 69 -30 -34
17:00 WNW 13 gust 19 Clear 16 102.1 -23 63 -28 -35
16:00 WNW 10 gust 15 Mainly Sunny 16 102.1 -22 69 -26 -32
15:00 SW 8 Sunny 16 102.0 -21 65 -26 -30
14:00 SW 11 gust 17 Light Snow 16 102.0 -22 65 -27 -33
13:00 SW 13 gust 19 Light Snow 15 102.0 -22 66 -27 -34
12:00 SW 10 gust 19 Light Snow 16 102.0 -23 67 -27 -33

Zoom-in to make a selection

Map of Atlantic - Newfoundland marine weather areas Banquereau - 44139 East Chedabucto Bay - 44488 West Chedabucto Bay - 44489 Blanc-Sablon Airport Cap Whittle Chevery Natashquan Airport Heath Point Îles de la Madeleine Airport Miscou Island Eskasoni (First Nations) Grand Étang Ingonish Beach North Mountain St.Paul Island J.A. Douglas McCurdy Sydney Airport Charlottetown Airport East Point North Cape Argentia Bonavista Burgeo Cape Race Corner Brook Daniel's Harbour Englee Ferolle Point La Scie Port aux Basques Rocky Harbour Sagona Island St. Anthony Airport St. John's Int'l Airport St. Lawrence Stephenville Airport Twillingate Winterland Branch Hill Wreckhouse Grates Cove Pool's Island Marticot Island Long Pond Cartwright Airport Mary's Harbour
Legend:
buoy Buoy
land station Land Station

Atlantic - Newfoundland Area

Another Region

What we are doing

Features

Hello Weather

Hello Weather: our upgraded telephone weather service is here. 1-833-794-3556 or 1-833-79HELLO.

Date modified: